Terminal Aerodrome Forecast
Issued by NWS

Home | Current Version | Previous Version | Text Only | Print | Product List | Glossary On
Versions: 1 2 3 4 5 6 7 8 9 10 11 12 13 14 15 16
000
FTUS43 KPAH 301700 RRA
TAFOWB
TAF
KOWB 301740Z 3018/3118 20001KT P6SM SKC
     FM300030 01004KT P6SM BKN090 OVC120
     FM310400 VRB03KT P6SM VCSH SCT040 OVC080
     FM311000 36005KT P6SM BKN040 OVC080
     FM311300 36005KT P6SM OVC040
      TEMPO 3114/3116 BKN016 OVC040=

USA.gov is the U.S. government's official web portal to all federal, state and local government web resources and services.